Terminal Aerodrome Forecast
Issued by NWS Tuscon, AZ

Home | Current Version | Previous Version | Text Only | Print | Product List | Glossary On
Versions: 1 2 3 4 5 6 7 8 9 10 11 12 13 14 15
000
FTUS45 KTWC 070317 AAA
TAFTUS
TAF AMD
KTUS 070317Z 0703/0724 22010KT P6SM SKC
     FM070500 17007KT P6SM SKC
     FM071600 18012KT P6SM SKC
     FM071900 21018G28KT P6SM SKC=

USA.gov is the U.S. government's official web portal to all federal, state and local government web resources and services.